Time;durP1;ratioP1;P1;durP2;ratioP2;P2;SDS_P1;SDS_P2;PMS_P1;PMS_P2;Temp;Humidity;BMP_temperature;BMP_pressure;BME280_temperature;BME280_humidity;BME280_pressure;Samples;Min_cycle;Max_cycle;Signal;HPM_P1;HPM_P2
2022/12/05 00:02:14;;;;;;;4.57;3.30;;;5.70;88.80;;;;;;4988520;28;20746;-72
2022/12/05 00:04:42;;;;;;;3.65;3.20;;;5.70;88.90;;;;;;5003683;28;20683;-71
2022/12/05 00:07:11;;;;;;;5.00;3.50;;;5.70;88.70;;;;;;5004018;28;20435;-70
2022/12/05 00:09:39;;;;;;;3.80;2.92;;;5.70;88.90;;;;;;5006908;28;20634;-71
2022/12/05 00:12:08;;;;;;;3.95;3.45;;;5.70;88.80;;;;;;5030712;28;20214;-71
2022/12/05 00:14:36;;;;;;;4.75;3.25;;;5.70;88.90;;;;;;4989066;28;20434;-71
2022/12/05 00:17:05;;;;;;;3.28;2.97;;;5.70;88.90;;;;;;5006537;28;20214;-72
2022/12/05 00:19:34;;;;;;;5.05;3.28;;;5.70;88.90;;;;;;5006523;28;20590;-70
2022/12/05 00:22:03;;;;;;;5.13;3.70;;;5.70;88.80;;;;;;5006127;28;20253;-71
2022/12/05 00:24:32;;;;;;;4.22;3.47;;;5.70;88.90;;;;;;5013540;28;20191;-72
2022/12/05 00:27:00;;;;;;;4.47;3.40;;;5.70;88.90;;;;;;5005078;28;20261;-71
2022/12/05 00:29:28;;;;;;;4.15;2.97;;;5.70;88.90;;;;;;5003370;28;20214;-69
2022/12/05 00:31:57;;;;;;;4.20;3.20;;;5.70;88.90;;;;;;5005492;28;20237;-70
2022/12/05 00:34:26;;;;;;;3.50;2.97;;;5.70;90.00;;;;;;5010498;28;20436;-70
2022/12/05 00:36:58;;;;;;;3.50;2.90;;;5.70;88.90;;;;;;5028946;28;20664;-71
2022/12/05 00:39:26;;;;;;;5.20;3.15;;;5.70;88.90;;;;;;5021607;28;20629;-72
2022/12/05 00:41:55;;;;;;;7.05;3.20;;;5.70;88.90;;;;;;5005549;28;20222;-70
2022/12/05 00:44:24;;;;;;;4.00;3.33;;;5.70;88.90;;;;;;5013853;28;20201;-70
2022/12/05 00:46:53;;;;;;;4.00;3.40;;;5.70;88.90;;;;;;5002410;28;20210;-71
2022/12/05 00:49:21;;;;;;;4.30;3.50;;;5.70;88.80;;;;;;5012538;28;21216;-71
2022/12/05 00:51:50;;;;;;;4.20;3.20;;;5.70;88.90;;;;;;5021952;28;20210;-71
2022/12/05 00:54:19;;;;;;;4.15;3.47;;;5.70;88.90;;;;;;5006091;28;20261;-72
2022/12/05 00:56:51;;;;;;;4.05;3.13;;;5.70;88.90;;;;;;5005947;28;20213;-73
2022/12/05 00:59:20;;;;;;;3.65;3.20;;;5.70;88.90;;;;;;5004367;28;20658;-72
2022/12/05 01:01:50;;;;;;;4.38;3.38;;;5.70;89.00;;;;;;5014795;28;20629;-71
2022/12/05 01:04:21;;;;;;;4.88;3.45;;;5.70;88.90;;;;;;5007045;28;20198;-71
2022/12/05 01:06:51;;;;;;;4.03;3.30;;;5.70;88.90;;;;;;5005969;28;20218;-71
2022/12/05 01:09:22;;;;;;;4.32;3.42;;;5.70;88.90;;;;;;5004239;28;20240;-70
2022/12/05 01:11:50;;;;;;;3.78;2.85;;;5.70;88.90;;;;;;5005254;28;20229;-72
2022/12/05 01:14:22;;;;;;;5.30;3.67;;;5.70;88.90;;;;;;5005909;28;20228;-70
2022/12/05 01:16:54;;;;;;;3.97;3.28;;;5.70;88.90;;;;;;5016881;28;20218;-71
2022/12/05 01:19:25;;;;;;;3.50;2.78;;;5.70;88.90;;;;;;5005533;28;20563;-71
2022/12/05 01:21:53;;;;;;;4.05;3.30;;;5.70;88.90;;;;;;5005297;28;20245;-72
2022/12/05 01:24:25;;;;;;;5.63;3.88;;;5.70;88.90;;;;;;5006163;28;20239;-70
2022/12/05 01:26:54;;;;;;;4.40;3.45;;;5.70;89.00;;;;;;4988955;28;20218;-71
2022/12/05 01:29:24;;;;;;;3.75;3.00;;;5.70;88.90;;;;;;5004140;28;20205;-71
2022/12/05 01:31:54;;;;;;;4.05;3.63;;;5.70;89.00;;;;;;5004011;28;20782;-72
2022/12/05 01:34:22;;;;;;;5.03;4.05;;;5.70;88.90;;;;;;5005168;28;20204;-71
2022/12/05 01:36:51;;;;;;;4.82;2.78;;;5.70;88.90;;;;;;4992167;28;20214;-72
2022/12/05 01:39:20;;;;;;;4.93;3.13;;;5.70;89.10;;;;;;5003694;28;20190;-71
2022/12/05 01:41:50;;;;;;;3.58;2.95;;;5.70;89.10;;;;;;5004026;28;20267;-71
2022/12/05 01:44:56;;;;;;;4.05;2.95;;;5.70;88.90;;;;;;5004410;28;20616;-70
2022/12/05 01:47:27;;;;;;;4.30;3.90;;;5.70;88.90;;;;;;5003892;28;20229;-71
2022/12/05 01:49:58;;;;;;;4.70;3.17;;;5.70;88.90;;;;;;5009360;28;20190;-71
2022/12/05 01:52:29;;;;;;;5.00;3.33;;;5.70;88.90;;;;;;5005478;28;20229;-72
2022/12/05 01:55:03;;;;;;;6.28;4.00;;;5.70;88.90;;;;;;5003960;28;20218;-71
2022/12/05 01:57:33;;;;;;;6.63;3.80;;;5.70;88.90;;;;;;5006123;28;20611;-70
2022/12/05 02:00:10;;;;;;;4.20;3.42;;;5.70;88.90;;;;;;5003857;28;20293;-71
2022/12/05 02:02:44;;;;;;;5.28;3.20;;;5.70;88.90;;;;;;5002076;28;20301;-72
2022/12/05 02:05:17;;;;;;;5.18;3.90;;;5.70;88.90;;;;;;5003708;28;20198;-72
2022/12/05 02:07:47;;;;;;;3.72;2.97;;;5.70;88.90;;;;;;5002865;28;20225;-72
2022/12/05 02:10:16;;;;;;;3.45;3.15;;;5.70;89.00;;;;;;5021197;28;20268;-72
2022/12/05 02:12:46;;;;;;;3.90;3.30;;;5.70;89.10;;;;;;5005738;28;20201;-72
2022/12/05 02:15:34;;;;;;;3.95;3.55;;;5.70;89.00;;;;;;5007252;28;20293;-72
2022/12/05 02:18:23;;;;;;;5.30;3.63;;;5.70;89.00;;;;;;5004115;28;20228;-70
2022/12/05 02:21:10;;;;;;;4.00;3.60;;;5.70;89.10;;;;;;4999674;28;20282;-71
2022/12/05 02:24:07;;;;;;;4.28;3.42;;;5.70;89.00;;;;;;4995451;28;20226;-72
2022/12/05 02:26:59;;;;;;;3.97;3.22;;;5.70;89.00;;;;;;5014195;28;20238;-71
2022/12/05 02:30:00;;;;;;;4.75;3.28;;;5.70;89.00;;;;;;5003760;28;20190;-71
2022/12/05 02:32:41;;;;;;;4.20;3.10;;;5.70;88.90;;;;;;5013057;28;20411;-71
2022/12/05 02:35:21;;;;;;;4.85;3.70;;;5.70;89.00;;;;;;5021670;28;20200;-72
2022/12/05 02:37:56;;;;;;;3.95;3.08;;;5.70;88.90;;;;;;5004077;28;20218;-71
2022/12/05 02:40:28;;;;;;;6.28;3.35;;;5.70;89.00;;;;;;5010141;28;20288;-72
2022/12/05 02:43:05;;;;;;;5.50;4.00;;;5.70;89.00;;;;;;5013159;28;20245;-71
2022/12/05 02:45:37;;;;;;;5.45;3.95;;;5.70;89.00;;;;;;4995506;28;20202;-71
2022/12/05 02:48:07;;;;;;;4.13;3.58;;;5.70;89.00;;;;;;5004872;28;20264;-73
2022/12/05 02:50:38;;;;;;;6.43;4.68;;;5.70;89.00;;;;;;5021028;28;20582;-71
2022/12/05 02:53:11;;;;;;;6.70;3.90;;;5.70;89.00;;;;;;5005526;28;20628;-73
2022/12/05 02:55:42;;;;;;;4.75;3.35;;;5.70;88.90;;;;;;5015601;28;20195;-72
2022/12/05 02:58:15;;;;;;;4.93;4.07;;;5.70;89.00;;;;;;5010236;28;20222;-71
2022/12/05 03:00:53;;;;;;;4.28;3.53;;;5.70;89.10;;;;;;5007007;28;20248;-71
2022/12/05 03:03:23;;;;;;;4.30;3.42;;;5.70;89.00;;;;;;5016000;28;20732;-72
2022/12/05 03:05:57;;;;;;;8.02;3.35;;;5.70;89.00;;;;;;5008373;28;20328;-73
2022/12/05 03:08:30;;;;;;;4.22;3.80;;;5.70;89.00;;;;;;5005557;28;20615;-71
2022/12/05 03:11:02;;;;;;;4.20;3.78;;;5.70;89.00;;;;;;5011239;28;20216;-72
2022/12/05 03:13:35;;;;;;;4.60;3.55;;;5.70;89.00;;;;;;5014094;28;20222;-71
2022/12/05 03:16:10;;;;;;;4.25;3.35;;;5.70;89.00;;;;;;5005364;28;20682;-73
2022/12/05 03:18:43;;;;;;;4.82;3.45;;;5.70;89.00;;;;;;5003418;28;20213;-72
2022/12/05 03:21:20;;;;;;;4.80;3.20;;;5.70;89.00;;;;;;5023977;28;20287;-72
2022/12/05 03:23:53;;;;;;;5.00;3.75;;;5.70;89.00;;;;;;5008208;28;20597;-71
2022/12/05 03:26:36;;;;;;;4.82;3.47;;;5.70;89.00;;;;;;5023818;28;20221;-72
2022/12/05 03:29:21;;;;;;;4.25;3.50;;;5.70;89.00;;;;;;5010823;28;20222;-73
2022/12/05 03:32:02;;;;;;;4.45;3.35;;;5.70;89.00;;;;;;4998400;28;20194;-72
2022/12/05 03:34:42;;;;;;;5.63;4.00;;;5.70;89.10;;;;;;5007445;28;20243;-72
2022/12/05 03:37:15;;;;;;;4.25;3.00;;;5.70;89.00;;;;;;5006487;28;20257;-72
2022/12/05 03:39:49;;;;;;;3.97;3.05;;;5.70;89.10;;;;;;5006038;28;20217;-72
2022/12/05 03:42:25;;;;;;;6.10;3.67;;;5.70;88.90;;;;;;5007944;28;20303;-72
2022/12/05 03:44:59;;;;;;;5.65;3.75;;;5.70;89.00;;;;;;5009344;28;20204;-71
2022/12/05 03:47:41;;;;;;;5.53;4.00;;;5.70;89.00;;;;;;5005184;28;20752;-71
2022/12/05 03:50:16;;;;;;;6.10;3.30;;;5.60;88.90;;;;;;5008174;28;20226;-71
2022/12/05 03:52:47;;;;;;;4.57;3.90;;;5.70;89.10;;;;;;5008235;28;20235;-73
2022/12/05 03:55:40;;;;;;;3.35;3.05;;;5.70;89.00;;;;;;4993652;28;20225;-72
2022/12/05 03:58:11;;;;;;;7.22;4.43;;;5.70;89.00;;;;;;5022467;28;20233;-71
2022/12/05 04:00:43;;;;;;;4.93;3.70;;;5.70;89.00;;;;;;5011768;28;20844;-73
2022/12/05 04:03:20;;;;;;;5.13;3.85;;;5.70;89.00;;;;;;5007012;28;20241;-72
2022/12/05 04:05:52;;;;;;;5.55;3.15;;;5.70;89.00;;;;;;5013907;28;20189;-72
2022/12/05 04:08:26;;;;;;;4.78;3.10;;;5.70;89.00;;;;;;5006322;28;20229;-72
2022/12/05 04:10:58;;;;;;;4.88;3.95;;;5.70;89.10;;;;;;5008690;28;20197;-72
2022/12/05 04:13:32;;;;;;;4.93;3.80;;;5.70;89.00;;;;;;5006408;28;20773;-72
2022/12/05 04:18:58;;;;;;;4.30;3.40;;;5.70;89.10;;;;;;5000410;28;20226;-72
2022/12/05 04:21:37;;;;;;;6.35;4.05;;;5.70;89.00;;;;;;4997856;28;20205;-72
2022/12/05 04:27:09;;;;;;;5.00;3.50;;;5.70;89.00;;;;;;5008066;28;20252;-71
2022/12/05 04:29:45;;;;;;;5.60;3.83;;;5.70;89.00;;;;;;5002312;28;20198;-72
2022/12/05 04:32:14;;;;;;;4.38;3.92;;;5.70;88.90;;;;;;5007963;28;20649;-73
2022/12/05 04:34:50;;;;;;;4.53;3.30;;;5.70;89.00;;;;;;5005245;28;20675;-72
2022/12/05 04:37:22;;;;;;;5.07;3.45;;;5.70;89.00;;;;;;5013166;28;20719;-72
2022/12/05 04:39:56;;;;;;;4.53;3.33;;;5.70;89.10;;;;;;5005972;28;20693;-72
2022/12/05 04:42:28;;;;;;;4.80;3.35;;;5.70;89.00;;;;;;5005438;28;20227;-72
2022/12/05 04:45:05;;;;;;;4.50;3.58;;;5.70;89.10;;;;;;5004585;28;20201;-71
2022/12/05 04:47:41;;;;;;;4.18;3.05;;;5.70;89.00;;;;;;5014214;28;20292;-72
2022/12/05 04:50:14;;;;;;;5.03;3.28;;;5.70;89.00;;;;;;5006108;28;20698;-73
2022/12/05 04:52:46;;;;;;;5.80;3.92;;;5.70;89.10;;;;;;5006290;28;20582;-72
2022/12/05 04:55:19;;;;;;;4.43;3.65;;;5.70;89.00;;;;;;5000559;28;20689;-72
2022/12/05 04:57:55;;;;;;;5.18;3.85;;;5.70;89.00;;;;;;5004799;28;20332;-72
2022/12/05 05:00:23;;;;;;;5.13;3.55;;;5.70;89.00;;;;;;5020764;28;20209;-73
2022/12/05 05:02:55;;;;;;;3.63;2.95;;;5.60;88.90;;;;;;5005552;28;20264;-72
2022/12/05 05:05:28;;;;;;;5.05;4.13;;;5.60;89.00;;;;;;5007522;28;20204;-72
2022/12/05 05:07:56;;;;;;;5.53;3.47;;;5.70;89.10;;;;;;4997256;28;20250;-73
2022/12/05 05:10:31;;;;;;;5.30;3.58;;;5.70;89.00;;;;;;5004945;28;20201;-71
2022/12/05 05:13:00;;;;;;;4.90;3.72;;;5.60;88.90;;;;;;5006467;28;20221;-71
2022/12/05 05:15:29;;;;;;;6.35;3.55;;;5.70;89.10;;;;;;5005091;28;20528;-71
2022/12/05 05:17:58;;;;;;;4.63;4.15;;;5.70;89.10;;;;;;5005688;28;20706;-72
2022/12/05 05:20:28;;;;;;;6.05;4.32;;;5.70;89.00;;;;;;5004872;28;20643;-72
2022/12/05 05:22:58;;;;;;;4.68;3.28;;;5.60;88.90;;;;;;5004389;28;20641;-72
2022/12/05 05:25:26;;;;;;;3.75;3.15;;;5.70;89.00;;;;;;5003750;28;20396;-72
2022/12/05 05:27:56;;;;;;;5.30;3.35;;;5.60;88.90;;;;;;4995511;28;20612;-71
2022/12/05 05:30:25;;;;;;;5.43;4.07;;;5.60;89.00;;;;;;5004486;28;20190;-73
2022/12/05 05:32:54;;;;;;;5.72;3.60;;;5.60;89.00;;;;;;5006566;28;20224;-72
2022/12/05 05:35:23;;;;;;;4.38;3.58;;;5.60;88.90;;;;;;5007192;28;20611;-70
2022/12/05 05:37:53;;;;;;;4.72;3.70;;;5.60;89.00;;;;;;5005293;28;20295;-72
2022/12/05 05:40:21;;;;;;;5.63;4.22;;;5.60;88.90;;;;;;5005748;28;20232;-71
2022/12/05 05:42:50;;;;;;;4.47;3.63;;;5.70;89.00;;;;;;5005318;28;20301;-73
2022/12/05 05:45:19;;;;;;;4.47;3.15;;;5.60;90.00;;;;;;5013560;28;20699;-71
2022/12/05 05:47:48;;;;;;;5.15;3.13;;;5.60;88.90;;;;;;5016028;28;20221;-75
2022/12/05 05:50:18;;;;;;;3.95;3.30;;;5.70;88.90;;;;;;5005121;28;20214;-71
2022/12/05 05:52:49;;;;;;;4.40;3.58;;;5.60;88.90;;;;;;5005543;28;20201;-72
2022/12/05 05:55:19;;;;;;;4.28;3.20;;;5.60;89.80;;;;;;5012733;28;20213;-72
2022/12/05 05:57:47;;;;;;;5.18;3.30;;;5.60;88.90;;;;;;5020511;28;20235;-71
2022/12/05 06:00:17;;;;;;;5.65;3.65;;;5.60;89.00;;;;;;5007087;28;20256;-72
2022/12/05 06:02:45;;;;;;;4.20;3.40;;;5.60;88.90;;;;;;5005427;28;20248;-72
2022/12/05 06:05:14;;;;;;;5.13;3.28;;;5.60;88.90;;;;;;5003184;28;20621;-73
2022/12/05 06:07:43;;;;;;;4.80;3.22;;;5.60;88.90;;;;;;4972002;28;20333;-73
2022/12/05 06:10:11;;;;;;;5.63;3.30;;;5.60;88.90;;;;;;5005562;28;20582;-72
2022/12/05 06:12:41;;;;;;;4.28;3.22;;;5.60;88.90;;;;;;5005361;28;20495;-71
2022/12/05 06:15:10;;;;;;;5.35;3.95;;;5.60;88.90;;;;;;5017504;28;20282;-72
2022/12/05 06:17:39;;;;;;;5.32;3.58;;;5.60;88.90;;;;;;5006136;28;20321;-72
2022/12/05 06:20:09;;;;;;;4.18;3.35;;;5.60;88.90;;;;;;5002085;28;20684;-70
2022/12/05 06:22:37;;;;;;;4.18;3.80;;;5.60;88.90;;;;;;5013632;28;20255;-71
2022/12/05 06:25:07;;;;;;;4.80;3.70;;;5.60;88.90;;;;;;5008081;28;20657;-72
2022/12/05 06:27:36;;;;;;;5.05;3.83;;;5.60;90.00;;;;;;5021505;28;20313;-72
2022/12/05 06:30:08;;;;;;;3.97;3.28;;;5.60;88.90;;;;;;5023686;28;20688;-72
2022/12/05 06:32:36;;;;;;;3.50;3.20;;;5.60;88.90;;;;;;5000444;28;20228;-72
2022/12/05 06:35:14;;;;;;;3.78;3.45;;;5.60;88.90;;;;;;5015919;28;20202;-72
2022/12/05 06:37:43;;;;;;;4.85;3.88;;;5.60;88.90;;;;;;5007753;28;20225;-72
2022/12/05 06:40:12;;;;;;;4.43;3.00;;;5.60;88.90;;;;;;5007351;28;20284;-72
2022/12/05 06:42:41;;;;;;;5.18;3.92;;;5.60;88.80;;;;;;5007348;28;20690;-73
2022/12/05 06:45:11;;;;;;;6.40;3.58;;;5.60;88.90;;;;;;5004632;28;20285;-71
2022/12/05 06:47:40;;;;;;;4.30;3.40;;;5.60;88.90;;;;;;5008947;28;20755;-73
2022/12/05 06:50:09;;;;;;;5.55;3.47;;;5.60;88.90;;;;;;5010807;28;20202;-72
2022/12/05 06:52:38;;;;;;;4.97;3.70;;;5.60;88.90;;;;;;4987417;28;20214;-73
2022/12/05 06:55:07;;;;;;;4.57;4.05;;;5.60;88.80;;;;;;5004951;28;20274;-72
2022/12/05 06:57:35;;;;;;;6.05;3.72;;;5.60;88.90;;;;;;4999007;28;20233;-73
2022/12/05 07:02:54;;;;;;;4.85;3.40;;;5.60;88.90;;;;;;5003037;28;20710;-71
2022/12/05 07:05:22;;;;;;;3.97;3.35;;;5.60;88.90;;;;;;5017269;28;20225;-72
2022/12/05 07:07:51;;;;;;;3.95;3.50;;;5.60;88.90;;;;;;5005814;28;20217;-71
2022/12/05 07:10:19;;;;;;;4.35;3.53;;;5.60;88.90;;;;;;5009860;28;20209;-71
2022/12/05 07:12:48;;;;;;;4.80;3.45;;;5.60;88.90;;;;;;5007957;28;20246;-71
2022/12/05 07:15:16;;;;;;;4.95;3.80;;;5.60;88.90;;;;;;5021355;28;20190;-72
2022/12/05 07:17:45;;;;;;;4.35;3.55;;;5.60;88.90;;;;;;5007097;28;20245;-71
2022/12/05 07:20:16;;;;;;;4.43;3.22;;;5.60;88.90;;;;;;5016063;28;20252;-72
2022/12/05 07:22:46;;;;;;;4.85;3.55;;;5.60;88.90;;;;;;5016071;28;20311;-71
2022/12/05 07:25:15;;;;;;;4.55;3.55;;;5.60;88.90;;;;;;4993868;28;20206;-73
2022/12/05 07:27:44;;;;;;;4.22;3.42;;;5.60;88.90;;;;;;5003609;28;20654;-73
2022/12/05 07:30:13;;;;;;;4.15;3.00;;;5.60;88.90;;;;;;5003180;28;20198;-72
2022/12/05 07:32:42;;;;;;;4.40;3.53;;;5.60;89.00;;;;;;4997126;28;20265;-72
2022/12/05 07:35:11;;;;;;;5.20;3.65;;;5.60;88.90;;;;;;5012563;28;20200;-71
2022/12/05 07:37:40;;;;;;;5.38;4.20;;;5.60;88.90;;;;;;5006344;28;20225;-72
2022/12/05 07:40:10;;;;;;;4.22;3.63;;;5.60;88.90;;;;;;5006596;28;20201;-72
2022/12/05 07:42:41;;;;;;;4.82;3.88;;;5.60;88.90;;;;;;5016168;28;20248;-72
2022/12/05 07:45:11;;;;;;;4.40;3.88;;;5.60;88.90;;;;;;4998654;28;20198;-72
2022/12/05 07:47:39;;;;;;;4.43;3.42;;;5.60;88.90;;;;;;5023630;28;20210;-71
2022/12/05 07:50:08;;;;;;;3.88;3.40;;;5.60;88.90;;;;;;5010949;28;20260;-70
2022/12/05 07:52:37;;;;;;;4.82;3.83;;;5.60;88.90;;;;;;5022333;28;20225;-72
2022/12/05 07:55:08;;;;;;;4.57;4.03;;;5.60;88.90;;;;;;5006306;28;20710;-71
2022/12/05 07:57:37;;;;;;;3.22;2.90;;;5.60;88.90;;;;;;5007171;28;20597;-71
2022/12/05 08:00:07;;;;;;;3.67;3.33;;;5.60;88.90;;;;;;5005858;28;20206;-71
2022/12/05 08:02:40;;;;;;;3.65;3.30;;;5.60;88.90;;;;;;5003050;28;20221;-70
2022/12/05 08:05:09;;;;;;;3.90;3.53;;;5.60;88.90;;;;;;5005990;28;20593;-71
2022/12/05 08:07:38;;;;;;;5.97;3.50;;;5.60;88.90;;;;;;5006847;28;20218;-71
2022/12/05 08:10:10;;;;;;;4.05;3.38;;;5.60;90.00;;;;;;5005700;28;20253;-72
2022/12/05 08:12:38;;;;;;;4.15;3.00;;;5.60;88.90;;;;;;4999634;28;20290;-70
2022/12/05 08:15:09;;;;;;;4.25;3.20;;;5.60;88.90;;;;;;4997402;28;20229;-71
2022/12/05 08:17:37;;;;;;;4.07;3.42;;;5.60;88.90;;;;;;5006013;28;20238;-71
2022/12/05 08:20:09;;;;;;;4.50;3.47;;;5.60;88.90;;;;;;5003382;28;20206;-71
2022/12/05 08:22:38;;;;;;;4.60;3.65;;;5.60;88.90;;;;;;5006314;28;20222;-74
2022/12/05 08:25:10;;;;;;;4.20;3.72;;;5.60;88.90;;;;;;5006263;28;20198;-74
2022/12/05 08:27:39;;;;;;;4.95;4.03;;;5.60;88.90;;;;;;5004983;28;20236;-74
2022/12/05 08:30:08;;;;;;;4.95;3.33;;;5.60;88.90;;;;;;5005472;28;20202;-76
2022/12/05 08:32:37;;;;;;;4.95;3.67;;;5.60;88.90;;;;;;5007884;28;20226;-75
2022/12/05 08:35:06;;;;;;;4.30;3.22;;;5.60;88.90;;;;;;5006746;28;20316;-75
2022/12/05 08:37:34;;;;;;;3.97;3.58;;;5.60;88.90;;;;;;4988942;28;20253;-74
2022/12/05 08:40:03;;;;;;;3.72;3.40;;;5.60;88.90;;;;;;5008403;28;20206;-75
2022/12/05 08:42:33;;;;;;;3.72;3.30;;;5.60;88.90;;;;;;5002869;28;20203;-76
2022/12/05 08:45:02;;;;;;;4.82;3.47;;;5.60;88.90;;;;;;5008888;28;20198;-76
2022/12/05 08:47:30;;;;;;;4.30;3.72;;;5.60;88.90;;;;;;5006236;28;20932;-75
2022/12/05 08:50:00;;;;;;;4.15;3.30;;;5.60;88.90;;;;;;5007859;28;20230;-75
2022/12/05 08:52:29;;;;;;;4.95;3.15;;;5.60;88.90;;;;;;5006299;28;20217;-75
2022/12/05 08:54:57;;;;;;;5.55;3.78;;;5.60;88.90;;;;;;5005023;28;20297;-74
2022/12/05 08:57:27;;;;;;;3.45;3.15;;;5.60;88.90;;;;;;5005894;28;20269;-74
2022/12/05 08:59:57;;;;;;;3.40;3.10;;;5.60;88.90;;;;;;5005148;28;20285;-75
2022/12/05 09:02:26;;;;;;;4.57;3.92;;;5.50;88.80;;;;;;5006769;28;20224;-75
2022/12/05 09:04:54;;;;;;;5.18;3.70;;;5.60;88.80;;;;;;5016219;28;20196;-75
2022/12/05 09:07:36;;;;;;;4.00;3.60;;;5.60;88.90;;;;;;5009841;28;20252;-76
2022/12/05 09:10:06;;;;;;;4.57;3.08;;;5.60;88.90;;;;;;5014664;28;20201;-74
2022/12/05 09:12:36;;;;;;;3.38;3.08;;;5.60;88.90;;;;;;5020542;28;20371;-75
2022/12/05 09:15:09;;;;;;;4.15;3.20;;;5.60;88.80;;;;;;5006015;28;20220;-75
2022/12/05 09:17:38;;;;;;;6.43;3.50;;;5.60;88.70;;;;;;5007132;28;20272;-74
2022/12/05 09:20:10;;;;;;;4.53;3.00;;;5.60;88.80;;;;;;5005355;28;20206;-74
2022/12/05 09:22:39;;;;;;;4.68;3.45;;;5.60;88.90;;;;;;5004784;28;20248;-75
2022/12/05 09:25:08;;;;;;;5.60;3.95;;;5.60;88.90;;;;;;5005986;28;20229;-74
2022/12/05 09:27:37;;;;;;;4.20;3.80;;;5.60;90.00;;;;;;5002333;28;20215;-74
2022/12/05 09:30:09;;;;;;;5.22;3.58;;;5.60;88.80;;;;;;5016604;28;20198;-75
2022/12/05 09:32:37;;;;;;;3.95;3.30;;;5.60;88.80;;;;;;4996976;28;20222;-74
2022/12/05 09:35:06;;;;;;;4.00;3.60;;;5.60;88.80;;;;;;5005684;28;20237;-74
2022/12/05 09:37:36;;;;;;;5.40;3.63;;;5.60;88.80;;;;;;4993089;28;20214;-74
2022/12/05 09:40:15;;;;;;;6.70;3.67;;;5.60;88.80;;;;;;5002253;28;20225;-75
2022/12/05 09:42:58;;;;;;;3.50;3.20;;;5.60;88.80;;;;;;5000009;28;20434;-74
2022/12/05 09:45:34;;;;;;;3.67;3.20;;;5.60;88.90;;;;;;4995889;28;20204;-74
2022/12/05 09:48:10;;;;;;;4.22;3.60;;;5.60;90.00;;;;;;5000493;28;20233;-74
2022/12/05 09:50:45;;;;;;;4.20;3.80;;;5.60;90.00;;;;;;5018262;28;20198;-74
2022/12/05 09:53:24;;;;;;;4.40;3.45;;;5.60;88.80;;;;;;5004266;28;20229;-75
2022/12/05 09:55:57;;;;;;;5.43;3.85;;;5.60;88.90;;;;;;5011593;28;20218;-75
2022/12/05 09:58:30;;;;;;;5.00;4.13;;;5.60;88.80;;;;;;5004466;28;20222;-73
2022/12/05 10:01:04;;;;;;;3.95;3.40;;;5.60;88.90;;;;;;5005452;28;20690;-74
2022/12/05 10:03:41;;;;;;;3.90;3.47;;;5.50;88.80;;;;;;5009692;28;20252;-76
2022/12/05 10:06:16;;;;;;;6.63;4.05;;;5.60;88.80;;;;;;5009389;28;20279;-74
2022/12/05 10:09:12;;;;;;;4.10;3.50;;;5.60;88.80;;;;;;5007975;28;20217;-75
2022/12/05 10:11:47;;;;;;;4.32;3.20;;;5.60;88.90;;;;;;5023320;28;20189;-74
2022/12/05 10:14:26;;;;;;;3.78;3.20;;;5.60;88.80;;;;;;4999120;28;20198;-75
2022/12/05 10:17:01;;;;;;;4.10;3.35;;;5.60;88.90;;;;;;5004550;28;20213;-75
2022/12/05 10:19:34;;;;;;;4.13;3.50;;;5.50;88.70;;;;;;5008236;28;20204;-74
2022/12/05 10:22:09;;;;;;;3.67;3.20;;;5.60;88.80;;;;;;5016336;28;20232;-75
2022/12/05 10:24:46;;;;;;;3.78;3.30;;;5.50;88.80;;;;;;5003650;28;20668;-74
2022/12/05 10:27:19;;;;;;;3.88;3.45;;;5.60;88.80;;;;;;5012694;28;20228;-75
2022/12/05 10:29:53;;;;;;;4.18;3.65;;;5.50;88.80;;;;;;5012042;28;20248;-74
2022/12/05 10:32:30;;;;;;;3.72;3.30;;;5.60;88.90;;;;;;5011755;28;20193;-75
2022/12/05 10:35:14;;;;;;;3.75;3.45;;;5.60;88.80;;;;;;5010570;28;20214;-74
2022/12/05 10:37:46;;;;;;;5.25;3.95;;;5.60;88.80;;;;;;5000081;28;20221;-74
2022/12/05 10:40:16;;;;;;;4.70;3.38;;;5.60;88.90;;;;;;5013463;28;20197;-75
2022/12/05 10:42:45;;;;;;;5.32;3.97;;;5.60;88.90;;;;;;5025328;28;20220;-74
2022/12/05 10:45:17;;;;;;;4.32;3.42;;;5.60;88.80;;;;;;5009620;28;20749;-74
2022/12/05 10:47:47;;;;;;;5.13;4.60;;;5.60;88.80;;;;;;5016317;28;20300;-74
2022/12/05 10:50:29;;;;;;;4.68;4.18;;;5.60;88.90;;;;;;5010130;28;20190;-74
2022/12/05 10:52:59;;;;;;;3.72;3.05;;;5.60;88.90;;;;;;5010333;28;20284;-74
2022/12/05 10:55:31;;;;;;;4.45;3.45;;;5.60;88.80;;;;;;5010106;28;20226;-75
2022/12/05 10:58:11;;;;;;;4.57;3.75;;;5.60;88.90;;;;;;5016432;28;20287;-74
2022/12/05 11:00:50;;;;;;;4.70;3.63;;;5.60;88.90;;;;;;4999628;28;20206;-75
2022/12/05 11:03:30;;;;;;;4.55;3.70;;;5.60;89.20;;;;;;5023455;28;20220;-75
2022/12/05 11:06:01;;;;;;;4.68;4.00;;;5.60;88.80;;;;;;5025716;28;20201;-74
2022/12/05 11:08:32;;;;;;;5.70;3.95;;;5.60;88.90;;;;;;5006491;28;20300;-74
2022/12/05 11:11:26;;;;;;;4.28;3.17;;;5.60;88.80;;;;;;5009368;28;20198;-74
2022/12/05 11:13:57;;;;;;;3.25;2.95;;;5.60;88.80;;;;;;5006558;28;20304;-74
2022/12/05 11:16:28;;;;;;;4.13;3.53;;;5.60;90.00;;;;;;5008067;28;20222;-74
2022/12/05 11:19:22;;;;;;;6.00;4.25;;;5.60;88.70;;;;;;5014317;28;21021;-73
2022/12/05 11:21:53;;;;;;;4.10;3.22;;;5.60;88.80;;;;;;5003022;28;20612;-75
2022/12/05 11:24:26;;;;;;;6.13;3.78;;;5.60;88.80;;;;;;5023819;28;20197;-74
2022/12/05 11:26:56;;;;;;;3.90;3.50;;;5.50;88.70;;;;;;5007476;28;20370;-73
2022/12/05 11:29:31;;;;;;;5.35;3.85;;;5.50;88.70;;;;;;5022951;28;20201;-73
2022/12/05 11:32:05;;;;;;;4.57;3.90;;;5.50;88.80;;;;;;5010554;28;20247;-74
2022/12/05 11:34:41;;;;;;;5.15;3.72;;;5.60;88.90;;;;;;5000029;28;20217;-74
2022/12/05 11:37:14;;;;;;;3.92;3.17;;;5.60;88.70;;;;;;5007432;28;20222;-74
2022/12/05 11:39:43;;;;;;;4.05;3.72;;;5.50;88.70;;;;;;5010597;28;20189;-73
2022/12/05 11:42:24;;;;;;;4.63;3.38;;;5.50;88.70;;;;;;5024239;28;20225;-74
2022/12/05 11:45:28;;;;;;;4.18;3.60;;;5.50;88.70;;;;;;5000935;28;20286;-74
2022/12/05 11:48:13;;;;;;;4.57;3.10;;;5.50;88.70;;;;;;5004796;28;20228;-74
2022/12/05 11:50:52;;;;;;;4.18;3.78;;;5.50;88.80;;;;;;5006680;28;20678;-73
2022/12/05 11:53:50;;;;;;;5.05;3.60;;;5.50;88.80;;;;;;5008449;28;20589;-73
2022/12/05 11:56:30;;;;;;;4.35;3.47;;;5.50;88.80;;;;;;5013898;28;20264;-73
2022/12/05 11:59:32;;;;;;;4.60;3.92;;;5.50;88.90;;;;;;5017746;28;20233;-73
2022/12/05 12:02:15;;;;;;;3.65;3.22;;;5.50;88.80;;;;;;4992828;28;20209;-73
2022/12/05 12:04:59;;;;;;;4.25;3.60;;;5.50;88.80;;;;;;5000091;28;20201;-73
2022/12/05 12:07:42;;;;;;;4.18;3.75;;;5.50;88.70;;;;;;5021231;28;20308;-74
2022/12/05 12:10:21;;;;;;;4.22;3.60;;;5.50;88.80;;;;;;5011360;28;20664;-74
2022/12/05 12:13:02;;;;;;;3.80;3.13;;;5.50;88.70;;;;;;5004630;28;20375;-74
2022/12/05 12:15:49;;;;;;;4.68;4.05;;;5.50;88.70;;;;;;5008527;28;20584;-73
2022/12/05 12:18:39;;;;;;;4.70;3.95;;;5.50;88.70;;;;;;5008514;28;20224;-74
2022/12/05 12:21:17;;;;;;;4.00;3.33;;;5.50;88.70;;;;;;4982849;28;20651;-74
2022/12/05 12:24:01;;;;;;;4.10;3.65;;;5.50;88.70;;;;;;5012828;28;20215;-74
2022/12/05 12:26:40;;;;;;;4.35;3.30;;;5.50;88.80;;;;;;5007914;28;20210;-73
2022/12/05 12:29:19;;;;;;;5.65;3.60;;;5.50;88.70;;;;;;5015250;28;20225;-73
2022/12/05 12:32:01;;;;;;;5.07;3.40;;;5.50;88.70;;;;;;5003355;28;20205;-73
2022/12/05 12:34:57;;;;;;;4.43;3.78;;;5.50;88.70;;;;;;5007956;28;20190;-73
2022/12/05 12:37:37;;;;;;;4.32;3.58;;;5.50;88.80;;;;;;4988899;28;20232;-74
2022/12/05 12:40:15;;;;;;;4.80;3.20;;;5.50;88.80;;;;;;5006342;28;20289;-73
2022/12/05 12:42:56;;;;;;;4.22;3.22;;;5.50;88.70;;;;;;5000214;28;20299;-74
2022/12/05 12:45:49;;;;;;;5.32;4.05;;;5.50;88.70;;;;;;5006038;28;20200;-74
2022/12/05 12:48:34;;;;;;;4.63;3.50;;;5.50;88.70;;;;;;5011091;28;20240;-74
2022/12/05 12:51:03;;;;;;;4.18;3.78;;;5.50;88.60;;;;;;5003051;28;20298;-74
2022/12/05 12:53:48;;;;;;;4.60;4.20;;;5.50;88.60;;;;;;5006655;28;20222;-73
2022/12/05 12:56:28;;;;;;;4.10;3.70;;;5.50;88.70;;;;;;5001445;28;20397;-73
2022/12/05 12:59:10;;;;;;;4.90;3.80;;;5.50;88.70;;;;;;5019746;28;20221;-75
2022/12/05 13:01:44;;;;;;;5.55;4.75;;;5.50;88.70;;;;;;5019255;28;20288;-74
2022/12/05 13:04:15;;;;;;;4.63;3.97;;;5.50;88.80;;;;;;5003579;28;20312;-75
2022/12/05 13:06:48;;;;;;;4.18;3.60;;;5.50;88.70;;;;;;5004734;28;20210;-74
2022/12/05 13:09:22;;;;;;;4.22;3.63;;;5.50;88.70;;;;;;5009073;28;20648;-74
2022/12/05 13:11:54;;;;;;;4.65;3.50;;;5.50;88.70;;;;;;5001556;28;20252;-74
2022/12/05 13:14:26;;;;;;;5.15;3.30;;;5.50;88.80;;;;;;5009380;28;20225;-73
2022/12/05 13:16:56;;;;;;;4.68;3.70;;;5.50;88.70;;;;;;4999384;28;20245;-73
2022/12/05 13:19:29;;;;;;;4.88;3.72;;;5.50;88.80;;;;;;5005023;28;20747;-73
2022/12/05 13:21:59;;;;;;;5.50;4.30;;;5.50;88.80;;;;;;5005786;28;20248;-74
2022/12/05 13:24:28;;;;;;;6.47;3.63;;;5.50;88.80;;;;;;4997455;28;20200;-74
2022/12/05 13:27:01;;;;;;;4.28;3.67;;;5.50;88.80;;;;;;5004911;28;20218;-75
2022/12/05 13:29:33;;;;;;;5.07;4.50;;;5.50;88.70;;;;;;5003573;28;20558;-75
2022/12/05 13:32:03;;;;;;;5.40;4.35;;;5.50;88.80;;;;;;5001432;28;20205;-74
2022/12/05 13:34:46;;;;;;;4.88;4.35;;;5.50;88.70;;;;;;5021553;28;20200;-74
2022/12/05 13:43:15;;;;;;;6.13;3.80;;;5.50;88.70;;;;;;5000900;28;20216;-73
2022/12/05 13:46:01;;;;;;;5.78;3.90;;;5.50;88.80;;;;;;5002888;28;20391;-74